Time;durP1;ratioP1;P1;durP2;ratioP2;P2;SDS_P1;SDS_P2;PMS_P1;PMS_P2;Temp;Humidity;BMP_temperature;BMP_pressure;BME280_temperature;BME280_humidity;BME280_pressure;Samples;Min_cycle;Max_cycle;Signal;HPM_P1;HPM_P2
2022/11/24 00:01:02;;;;;;;50.87;31.27;;;;;;;3.38;100.00;100221.22;5002178;28;20272;-54
2022/11/24 00:03:29;;;;;;;49.70;30.10;;;;;;;3.31;100.00;100223.69;4997047;28;20319;-55
2022/11/24 00:05:55;;;;;;;46.43;31.03;;;;;;;3.21;100.00;100224.34;4983036;28;20383;-56
2022/11/24 00:08:22;;;;;;;46.70;30.57;;;;;;;3.43;100.00;100222.19;4989950;28;20264;-55
2022/11/24 00:10:50;;;;;;;48.67;33.37;;;;;;;3.74;100.00;100216.72;5000302;28;20234;-54
2022/11/24 00:13:16;;;;;;;47.17;30.10;;;;;;;3.67;100.00;100225.25;4998157;28;20315;-55
2022/11/24 00:15:43;;;;;;;44.27;30.07;;;;;;;3.40;100.00;100223.00;4994917;28;21227;-55
2022/11/24 00:18:10;;;;;;;46.67;30.57;;;;;;;3.28;100.00;100226.22;4992204;28;20334;-54
2022/11/24 00:20:36;;;;;;;50.43;32.73;;;;;;;3.51;100.00;100228.38;4997707;28;20685;-54
2022/11/24 00:23:03;;;;;;;42.93;29.63;;;;;;;3.78;100.00;100217.66;4995102;28;21307;-55
2022/11/24 00:25:29;;;;;;;48.67;33.70;;;;;;;3.50;100.00;100224.06;5000856;28;20319;-54
2022/11/24 00:27:57;;;;;;;43.27;28.73;;;;;;;3.50;100.00;100224.06;4999479;28;20664;-53
2022/11/24 00:30:24;;;;;;;51.60;30.87;;;;;;;3.97;100.00;100221.47;4998149;28;20240;-54
2022/11/24 00:32:52;;;;;;;46.87;30.60;;;;;;;3.57;100.00;100226.78;4997304;28;20725;-54
2022/11/24 00:35:19;;;;;;;47.93;31.90;;;;;;;3.14;100.00;100230.25;4996144;28;20320;-54
2022/11/24 00:37:45;;;;;;;45.70;31.30;;;;;;;3.23;100.00;100227.88;4999887;28;20264;-55
2022/11/24 00:40:12;;;;;;;46.30;30.83;;;;;;;3.08;100.00;100224.94;4996241;28;20240;-55
2022/11/24 00:42:39;;;;;;;48.70;30.37;;;;;;;2.83;100.00;100221.81;4999135;28;20351;-56
2022/11/24 00:45:08;;;;;;;46.13;30.07;;;;;;;2.80;100.00;100221.75;4997306;28;20241;-56
2022/11/24 00:47:35;;;;;;;52.43;33.93;;;;;;;2.86;100.00;100218.44;4999608;28;20240;-55
2022/11/24 00:50:01;;;;;;;44.40;30.23;;;;;;;2.90;100.00;100214.19;4999454;28;20239;-56
2022/11/24 00:52:28;;;;;;;47.43;32.67;;;;;;;2.73;100.00;100214.69;4997256;28;20343;-55
2022/11/24 00:54:54;;;;;;;46.20;32.73;;;;;;;3.04;100.00;100225.72;4994031;28;20239;-54
2022/11/24 00:57:21;;;;;;;46.60;30.73;;;;;;;2.87;100.00;100218.44;4998234;28;20675;-56
2022/11/24 00:59:47;;;;;;;50.40;31.23;;;;;;;3.00;100.00;100222.19;4991839;28;20363;-55
2022/11/24 01:02:15;;;;;;;47.73;32.17;;;;;;;2.67;100.00;100217.16;4997695;28;20340;-55
2022/11/24 01:04:42;;;;;;;48.60;30.90;;;;;;;3.09;100.00;100219.81;4995945;28;20266;-54
2022/11/24 01:07:09;;;;;;;46.83;31.87;;;;;;;2.79;100.00;100220.00;5000479;28;20312;-55
2022/11/24 01:09:36;;;;;;;46.03;31.03;;;;;;;2.54;100.00;100228.09;5005896;28;20313;-54
2022/11/24 01:12:03;;;;;;;50.73;30.97;;;;;;;2.73;100.00;100225.03;4997506;28;20906;-54
2022/11/24 01:14:30;;;;;;;48.43;31.40;;;;;;;2.55;100.00;100230.69;4997965;28;20746;-54
2022/11/24 01:16:57;;;;;;;49.50;30.77;;;;;;;2.58;100.00;100235.94;4991102;28;20730;-56
2022/11/24 01:19:26;;;;;;;41.23;29.33;;;;;;;2.47;100.00;100241.72;4996397;28;20275;-54
2022/11/24 01:21:53;;;;;;;46.60;31.40;;;;;;;2.38;100.00;100243.25;5000249;28;20239;-55
2022/11/24 01:24:20;;;;;;;51.67;32.30;;;;;;;2.57;100.00;100251.47;4996277;28;20237;-55
2022/11/24 01:26:47;;;;;;;49.53;32.87;;;;;;;2.54;100.00;100248.81;4999235;28;20240;-55
2022/11/24 01:29:13;;;;;;;46.97;31.30;;;;;;;2.71;100.00;100234.53;5003633;28;20240;-56
2022/11/24 01:31:40;;;;;;;45.00;31.10;;;;;;;2.91;100.00;100231.47;5005329;28;20327;-56
2022/11/24 01:34:07;;;;;;;47.33;31.40;;;;;;;3.01;100.00;100228.25;4998787;28;20237;-55
2022/11/24 01:36:35;;;;;;;48.37;31.43;;;;;;;2.91;100.00;100223.69;4993412;28;20797;-56
2022/11/24 01:39:05;;;;;;;40.10;29.90;;;;;;;2.84;100.00;100222.69;4992785;28;20232;-55
2022/11/24 01:41:34;;;;;;;47.83;32.60;;;;;;;3.31;100.00;100231.47;5002097;28;20647;-54
2022/11/24 01:44:01;;;;;;;48.17;31.23;;;;;;;3.02;100.00;100238.66;4984287;28;20296;-56
2022/11/24 01:46:30;;;;;;;43.27;30.57;;;;;;;2.81;100.00;100238.22;4992400;28;20249;-55
2022/11/24 01:49:03;;;;;;;42.73;29.53;;;;;;;2.80;100.00;100231.25;5004266;28;20255;-58
2022/11/24 01:51:33;;;;;;;43.50;29.47;;;;;;;2.65;100.00;100242.16;5004188;28;20503;-55
2022/11/24 01:54:05;;;;;;;41.30;27.67;;;;;;;2.47;100.00;100252.97;4985585;28;20306;-54
2022/11/24 01:56:33;;;;;;;53.13;30.80;;;;;;;2.55;100.00;100260.91;4996427;28;20338;-55
2022/11/24 01:59:01;;;;;;;50.87;29.47;;;;;;;2.79;100.00;100248.53;4987680;28;20316;-56
2022/11/24 02:01:30;;;;;;;44.27;31.13;;;;;;;2.79;100.00;100251.13;4987341;28;20247;-54
2022/11/24 02:03:57;;;;;;;45.20;28.70;;;;;;;2.80;100.00;100258.03;4984428;28;20240;-54
2022/11/24 02:06:27;;;;;;;44.20;28.93;;;;;;;2.72;100.00;100258.72;4984440;28;20240;-55
2022/11/24 02:08:57;;;;;;;43.00;29.37;;;;;;;2.63;100.00;100261.97;4982525;28;20280;-54
2022/11/24 02:11:28;;;;;;;40.77;27.30;;;;;;;2.51;100.00;100264.28;4986426;28;20233;-55
2022/11/24 02:13:55;;;;;;;48.53;30.80;;;;;;;2.38;100.00;100266.56;4993272;28;20275;-54
2022/11/24 02:16:22;;;;;;;41.47;29.60;;;;;;;2.30;100.00;100264.63;5001564;28;20236;-55
2022/11/24 02:18:49;;;;;;;45.43;28.63;;;;;;;2.13;100.00;100271.97;4991829;28;20227;-56
2022/11/24 02:21:17;;;;;;;44.73;29.27;;;;;;;1.96;100.00;100273.25;4991132;28;20237;-55
2022/11/24 02:23:50;;;;;;;42.80;28.57;;;;;;;2.17;100.00;100263.44;4994693;28;20917;-55
2022/11/24 02:26:34;;;;;;;46.10;29.97;;;;;;;2.76;100.00;100266.59;5002005;28;20232;-55
2022/11/24 02:29:01;;;;;;;44.77;29.13;;;;;;;2.79;100.00;100265.78;4999869;28;20264;-55
2022/11/24 02:31:28;;;;;;;39.27;28.30;;;;;;;2.79;100.00;100266.66;5002265;28;20232;-56
2022/11/24 02:33:57;;;;;;;42.53;27.90;;;;;;;2.66;100.00;100269.81;5000341;28;21278;-55
2022/11/24 02:36:24;;;;;;;43.50;28.47;;;;;;;2.50;100.00;100267.72;5004290;28;20239;-55
2022/11/24 02:38:51;;;;;;;41.17;28.93;;;;;;;2.53;100.00;100272.97;5001061;28;20235;-55
2022/11/24 02:41:19;;;;;;;38.23;27.37;;;;;;;2.59;100.00;100268.78;5003536;28;20232;-55
2022/11/24 02:43:49;;;;;;;43.30;27.47;;;;;;;2.29;100.00;100284.47;5002179;28;20400;-55
2022/11/24 02:46:16;;;;;;;37.23;27.43;;;;;;;2.19;100.00;100271.25;4995728;28;20285;-55
2022/11/24 02:48:43;;;;;;;46.57;28.23;;;;;;;2.28;100.00;100269.78;5002385;28;20240;-54
2022/11/24 02:51:10;;;;;;;42.63;28.93;;;;;;;2.11;100.00;100271.06;4998120;28;20607;-56
2022/11/24 02:53:36;;;;;;;38.33;27.23;;;;;;;2.45;100.00;100266.72;4999683;28;20231;-55
2022/11/24 02:56:04;;;;;;;43.30;28.23;;;;;;;2.54;100.00;100264.34;4999318;28;20341;-55
2022/11/24 02:58:31;;;;;;;50.37;29.20;;;;;;;2.82;100.00;100261.56;5003418;28;20254;-54
2022/11/24 03:00:59;;;;;;;42.70;27.67;;;;;;;2.73;100.00;100261.34;4996000;28;20907;-56
2022/11/24 03:03:26;;;;;;;40.77;27.73;;;;;;;2.95;100.00;100256.63;4991183;28;20241;-54
2022/11/24 03:05:53;;;;;;;49.80;30.60;;;;;;;2.73;100.00;100261.34;4995539;28;20244;-55
2022/11/24 03:08:20;;;;;;;43.30;29.80;;;;;;;2.72;100.00;100269.97;5002937;28;20823;-56
2022/11/24 03:10:48;;;;;;;42.70;28.43;;;;;;;2.76;100.00;100274.38;5002647;28;20259;-55
2022/11/24 03:13:14;;;;;;;47.90;31.03;;;;;;;2.98;100.00;100261.88;4994816;28;20951;-54
2022/11/24 03:15:41;;;;;;;58.80;32.40;;;;;;;2.72;100.00;100277.75;5002120;28;20321;-53
2022/11/24 03:18:10;;;;;;;44.00;28.70;;;;;;;2.77;100.00;100272.66;5003717;28;20434;-54
2022/11/24 03:20:37;;;;;;;44.80;29.87;;;;;;;2.42;100.00;100274.41;5001328;28;20297;-55
2022/11/24 03:23:04;;;;;;;42.37;28.17;;;;;;;2.34;100.00;100272.50;5000152;28;20237;-55
2022/11/24 03:25:31;;;;;;;41.20;28.50;;;;;;;2.42;100.00;100277.00;5001902;28;20239;-55
2022/11/24 03:27:57;;;;;;;46.03;29.47;;;;;;;2.31;100.00;100289.69;5002405;28;20242;-55
2022/11/24 03:30:24;;;;;;;48.40;27.37;;;;;;;1.94;100.00;100298.25;4995834;28;20233;-54
2022/11/24 03:32:52;;;;;;;47.70;30.27;;;;;;;1.99;100.00;100294.03;4999265;28;20286;-56
2022/11/24 03:35:20;;;;;;;42.87;30.23;;;;;;;2.43;100.00;100302.09;4998467;28;20234;-54
2022/11/24 03:37:47;;;;;;;46.83;30.90;;;;;;;2.32;100.00;100296.66;4997455;28;20241;-55
2022/11/24 03:40:14;;;;;;;47.33;28.03;;;;;;;2.79;100.00;100292.59;4998500;28;20245;-56
2022/11/24 03:42:41;;;;;;;42.87;28.07;;;;;;;3.24;100.00;100297.06;5000547;28;20236;-59
2022/11/24 03:45:09;;;;;;;46.13;28.33;;;;;;;3.22;100.00;100290.94;4999858;28;20230;-54
2022/11/24 03:47:36;;;;;;;46.00;28.73;;;;;;;3.53;100.00;100284.69;4998971;28;20248;-57
2022/11/24 03:50:03;;;;;;;44.00;28.43;;;;;;;3.52;100.00;100292.44;4997513;28;20740;-55
2022/11/24 03:52:32;;;;;;;46.37;29.07;;;;;;;3.45;100.00;100300.94;5003292;28;20600;-55
2022/11/24 03:54:59;;;;;;;37.00;27.13;;;;;;;3.14;100.00;100304.59;4999012;28;20670;-55
2022/11/24 03:57:26;;;;;;;39.93;28.40;;;;;;;3.46;100.00;100307.88;5001941;28;20284;-54
2022/11/24 03:59:53;;;;;;;43.20;28.87;;;;;;;3.21;100.00;100312.56;5005934;28;20704;-56
2022/11/24 04:02:20;;;;;;;40.57;27.93;;;;;;;3.12;100.00;100317.53;5011284;28;20228;-56
2022/11/24 04:04:49;;;;;;;41.67;27.50;;;;;;;2.76;100.00;100323.63;5013034;28;20282;-55
2022/11/24 04:07:17;;;;;;;38.10;27.03;;;;;;;2.90;100.00;100320.47;5009385;28;20241;-55
2022/11/24 04:09:45;;;;;;;40.90;27.43;;;;;;;2.80;100.00;100320.25;5001326;28;20241;-54
2022/11/24 04:14:57;;;;;;;38.80;25.40;;;;;;;2.80;100.00;100319.38;5011105;28;20294;-54
2022/11/24 04:17:24;;;;;;;38.50;27.57;;;;;;;2.63;100.00;100321.56;5003663;28;20241;-55
2022/11/24 04:19:50;;;;;;;42.07;26.67;;;;;;;2.84;100.00;100322.09;5006191;28;20316;-60
2022/11/24 04:22:17;;;;;;;38.50;25.93;;;;;;;3.08;100.00;100320.91;5011991;28;20233;-55
2022/11/24 04:24:46;;;;;;;43.90;26.90;;;;;;;3.26;100.00;100320.41;5005525;28;20244;-56
2022/11/24 04:27:13;;;;;;;43.87;26.50;;;;;;;2.81;100.00;100311.66;5004992;28;20236;-54
2022/11/24 04:29:40;;;;;;;39.33;25.03;;;;;;;2.58;100.00;100315.41;5004000;28;20259;-56
2022/11/24 04:32:07;;;;;;;35.57;25.87;;;;;;;2.72;100.00;100300.19;5001800;28;20258;-57
2022/11/24 04:34:34;;;;;;;38.87;26.20;;;;;;;2.78;100.00;100309.00;5006849;28;20236;-53
2022/11/24 04:37:01;;;;;;;39.00;26.10;;;;;;;2.74;100.00;100314.94;5006833;28;20292;-54
2022/11/24 04:39:28;;;;;;;37.83;24.83;;;;;;;2.60;100.00;100327.56;5007940;28;20434;-54
2022/11/24 04:41:56;;;;;;;41.77;25.57;;;;;;;2.34;100.00;100345.03;5002511;28;20296;-55
2022/11/24 04:44:23;;;;;;;38.67;26.20;;;;;;;2.27;100.00;100335.34;5003744;28;20525;-55
2022/11/24 04:46:50;;;;;;;35.83;25.33;;;;;;;2.23;100.00;100346.47;5001707;28;20236;-55
2022/11/24 04:49:17;;;;;;;35.50;25.80;;;;;;;2.21;100.00;100348.16;5001593;28;20292;-56
2022/11/24 04:51:44;;;;;;;35.53;25.03;;;;;;;2.92;100.00;100345.63;5009419;28;20231;-55
2022/11/24 04:54:12;;;;;;;42.87;27.67;;;;;;;2.78;100.00;100358.25;5011190;28;20283;-55
2022/11/24 04:56:39;;;;;;;37.57;24.83;;;;;;;2.44;100.00;100368.59;5011425;28;20237;-54
2022/11/24 04:59:08;;;;;;;37.90;24.73;;;;;;;2.25;100.00;100369.84;4998321;28;20233;-56
2022/11/24 05:01:35;;;;;;;40.40;25.83;;;;;;;2.38;100.00;100375.34;5006986;28;20310;-55
2022/11/24 05:04:02;;;;;;;35.90;24.83;;;;;;;2.58;100.00;100380.19;5007915;28;20244;-55
2022/11/24 05:06:29;;;;;;;40.60;26.30;;;;;;;2.22;100.00;100373.22;5008972;28;20319;-55
2022/11/24 05:08:56;;;;;;;38.50;26.17;;;;;;;2.48;100.00;100373.91;5005287;28;20416;-54
2022/11/24 05:11:23;;;;;;;40.90;27.03;;;;;;;2.77;100.00;100371.16;5008183;28;20235;-55
2022/11/24 05:13:50;;;;;;;43.10;26.27;;;;;;;3.10;100.00;100371.09;5005823;28;20282;-56
2022/11/24 05:16:18;;;;;;;38.53;25.40;;;;;;;2.92;100.00;100370.66;5006636;28;20236;-56
2022/11/24 05:18:46;;;;;;;40.77;24.60;;;;;;;2.80;100.00;100376.41;5005508;28;20236;-54
2022/11/24 05:21:12;;;;;;;37.37;24.53;;;;;;;2.52;100.00;100380.03;5005934;28;20241;-54
2022/11/24 05:23:39;;;;;;;37.87;25.17;;;;;;;2.31;100.00;100391.56;5007991;28;20367;-55
2022/11/24 05:26:07;;;;;;;33.60;24.03;;;;;;;2.22;100.00;100390.47;5005948;28;20236;-56
2022/11/24 05:28:34;;;;;;;41.00;26.27;;;;;;;2.30;100.00;100388.97;5001991;28;20242;-56
2022/11/24 05:31:01;;;;;;;37.33;24.07;;;;;;;2.17;100.00;100392.06;5000207;28;20244;-57
2022/11/24 05:33:32;;;;;;;42.97;26.00;;;;;;;2.25;100.00;100400.94;5006731;28;20240;-55
2022/11/24 05:36:00;;;;;;;34.60;24.13;;;;;;;2.11;100.00;100398.84;5000599;28;20244;-55
2022/11/24 05:38:28;;;;;;;39.63;23.53;;;;;;;1.87;100.00;100400.72;5000766;28;20236;-56
2022/11/24 05:40:55;;;;;;;34.80;24.00;;;;;;;2.02;100.00;100402.88;4999333;28;20318;-55
2022/11/24 05:43:22;;;;;;;39.43;23.57;;;;;;;1.98;100.00;100403.63;4993569;28;20749;-55
2022/11/24 05:45:49;;;;;;;32.93;22.93;;;;;;;1.87;100.00;100406.78;4994018;28;20262;-55
2022/11/24 05:48:16;;;;;;;36.43;22.13;;;;;;;1.75;100.00;100401.22;5008079;28;20577;-55
2022/11/24 05:50:44;;;;;;;39.07;24.63;;;;;;;2.34;100.00;100402.03;5002875;28;20267;-56
2022/11/24 05:53:12;;;;;;;34.67;22.03;;;;;;;2.36;100.00;100400.38;5001933;28;20260;-56
2022/11/24 05:55:40;;;;;;;38.93;25.30;;;;;;;2.54;100.00;100405.16;5007600;28;20322;-55
2022/11/24 05:58:08;;;;;;;33.90;22.93;;;;;;;2.36;100.00;100415.91;5006532;28;20227;-55
2022/11/24 06:00:36;;;;;;;33.93;24.83;;;;;;;2.41;100.00;100409.97;5007949;28;20236;-56
2022/11/24 06:03:03;;;;;;;34.77;23.67;;;;;;;3.10;100.00;100405.69;5000222;28;20243;-54
2022/11/24 06:05:30;;;;;;;32.43;21.73;;;;;;;3.21;100.00;100411.13;5003171;28;20236;-56
2022/11/24 06:08:00;;;;;;;34.80;22.90;;;;;;;3.01;100.00;100410.63;5005368;28;20233;-56
2022/11/24 06:10:29;;;;;;;33.10;22.60;;;;;;;2.81;100.00;100415.34;5003999;28;20780;-55
2022/11/24 06:12:56;;;;;;;34.77;23.70;;;;;;;3.31;100.00;100418.28;4997596;28;20241;-55
2022/11/24 06:15:23;;;;;;;31.20;20.43;;;;;;;3.39;100.00;100418.44;4999530;28;20229;-56
2022/11/24 06:17:54;;;;;;;33.30;22.20;;;;;;;3.38;100.00;100428.81;4985985;28;20237;-54
2022/11/24 06:20:21;;;;;;;30.67;21.87;;;;;;;3.23;100.00;100435.41;4994348;28;20745;-56
2022/11/24 06:22:48;;;;;;;29.00;21.67;;;;;;;3.18;100.00;100447.38;5000870;28;20883;-57
2022/11/24 06:25:16;;;;;;;31.50;21.27;;;;;;;3.38;100.00;100452.16;4999718;28;20231;-54
2022/11/24 06:27:43;;;;;;;30.20;20.90;;;;;;;3.24;100.00;100451.84;4999825;28;20241;-54
2022/11/24 06:30:12;;;;;;;32.80;22.07;;;;;;;3.09;100.00;100460.13;4998871;28;20235;-56
2022/11/24 06:32:43;;;;;;;35.13;19.50;;;;;;;3.77;100.00;100458.25;4996729;28;20718;-57
2022/11/24 06:35:10;;;;;;;30.17;22.27;;;;;;;3.73;100.00;100464.22;4996438;28;21122;-55
2022/11/24 06:37:37;;;;;;;26.97;19.57;;;;;;;3.63;100.00;100462.25;4998530;28;20672;-56
2022/11/24 06:40:07;;;;;;;26.63;19.07;;;;;;;3.53;100.00;100465.47;4994616;28;20308;-61
2022/11/24 06:42:36;;;;;;;31.93;20.60;;;;;;;2.86;100.00;100469.91;5000326;28;20331;-56
2022/11/24 06:45:03;;;;;;;29.77;19.40;;;;;;;3.02;100.00;100466.88;5003329;28;20236;-55
2022/11/24 06:47:29;;;;;;;32.17;19.93;;;;;;;2.79;100.00;100462.81;5001697;28;20275;-55
2022/11/24 06:49:56;;;;;;;29.83;21.60;;;;;;;2.87;100.00;100456.97;4997385;28;20237;-53
2022/11/24 06:52:24;;;;;;;30.97;21.03;;;;;;;2.87;100.00;100462.16;4999711;28;20240;-56
2022/11/24 06:54:52;;;;;;;29.20;19.80;;;;;;;2.81;100.00;100459.44;5002049;28;20271;-54
2022/11/24 06:57:19;;;;;;;28.17;20.73;;;;;;;2.78;100.00;100467.13;4999048;28;20308;-54
2022/11/24 06:59:48;;;;;;;30.77;20.50;;;;;;;2.96;100.00;100466.72;4998259;28;20248;-56
2022/11/24 07:02:14;;;;;;;35.43;21.83;;;;;;;2.51;100.00;100476.75;4998355;28;20271;-55
2022/11/24 07:04:41;;;;;;;33.70;21.13;;;;;;;2.98;100.00;100477.09;4999538;28;20232;-55
2022/11/24 07:07:08;;;;;;;32.20;20.33;;;;;;;3.30;100.00;100470.13;5004413;28;20247;-55
2022/11/24 07:09:35;;;;;;;36.03;22.37;;;;;;;2.98;100.00;100474.50;4993799;28;20331;-54
2022/11/24 07:12:03;;;;;;;30.53;19.80;;;;;;;3.28;100.00;100483.06;4992819;28;20234;-55
2022/11/24 07:14:30;;;;;;;31.33;20.03;;;;;;;3.27;100.00;100483.91;4994608;28;20802;-55
2022/11/24 07:16:59;;;;;;;32.63;21.63;;;;;;;3.64;100.00;100484.78;4986749;28;20272;-54
2022/11/24 07:19:26;;;;;;;28.90;19.87;;;;;;;3.49;100.00;100479.25;5000367;28;20513;-55
2022/11/24 07:21:53;;;;;;;29.37;19.33;;;;;;;3.30;100.00;100489.19;4999198;28;20243;-55
2022/11/24 07:24:20;;;;;;;31.13;19.60;;;;;;;2.55;100.00;100502.78;4996562;28;20255;-57
2022/11/24 07:26:47;;;;;;;28.27;19.37;;;;;;;2.55;100.00;100495.00;4999432;28;20240;-57
2022/11/24 07:29:13;;;;;;;29.50;20.50;;;;;;;2.94;100.00;100489.13;4987909;28;20551;-55
2022/11/24 07:31:41;;;;;;;33.83;20.80;;;;;;;2.76;100.00;100510.25;5000284;28;20235;-55
2022/11/24 07:34:09;;;;;;;32.23;20.87;;;;;;;2.56;100.00;100501.06;5001267;28;20295;-55
2022/11/24 07:36:36;;;;;;;34.50;20.83;;;;;;;2.52;100.00;100505.28;5002036;28;20325;-55
2022/11/24 07:39:03;;;;;;;30.10;19.63;;;;;;;2.88;100.00;100507.13;5001478;28;20274;-55
2022/11/24 07:41:30;;;;;;;32.80;21.20;;;;;;;3.16;100.00;100508.72;4999598;28;20253;-55
2022/11/24 07:43:56;;;;;;;30.93;19.33;;;;;;;3.48;100.00;100506.03;4995398;28;20252;-56
2022/11/24 07:46:23;;;;;;;28.90;19.23;;;;;;;3.42;100.00;100513.66;4993223;28;20491;-55
2022/11/24 07:48:50;;;;;;;26.33;18.67;;;;;;;3.27;100.00;100515.06;4987849;28;20267;-55
2022/11/24 07:51:18;;;;;;;27.67;19.60;;;;;;;3.37;100.00;100515.25;4989259;28;20746;-56
2022/11/24 07:53:45;;;;;;;27.67;19.40;;;;;;;3.44;100.00;100518.06;5003400;28;21030;-54
2022/11/24 07:56:12;;;;;;;26.47;18.27;;;;;;;3.32;100.00;100523.81;4993211;28;20783;-54
2022/11/24 07:58:39;;;;;;;28.57;20.27;;;;;;;3.12;100.00;100522.44;4997541;28;20258;-55
2022/11/24 08:01:11;;;;;;;28.87;20.50;;;;;;;2.89;100.00;100527.03;4995167;28;20868;-54
2022/11/24 08:03:38;;;;;;;34.30;22.37;;;;;;;2.87;100.00;100524.38;4996024;28;20235;-56
2022/11/24 08:06:05;;;;;;;27.57;20.00;;;;;;;2.74;100.00;100526.59;5002666;28;20240;-54
2022/11/24 08:08:33;;;;;;;29.63;19.87;;;;;;;2.36;100.00;100523.84;4994210;28;20259;-55
2022/11/24 08:11:05;;;;;;;32.00;19.97;;;;;;;2.49;100.00;100530.22;5005221;28;20606;-56
2022/11/24 08:13:32;;;;;;;30.60;19.43;;;;;;;2.81;100.00;100513.88;5005798;28;20750;-54
2022/11/24 08:15:59;;;;;;;28.80;19.53;;;;;;;3.41;100.00;100523.19;5002866;28;20264;-54
2022/11/24 08:18:26;;;;;;;27.30;19.70;;;;;;;3.27;100.00;100530.63;4985647;28;20686;-54
2022/11/24 08:20:53;;;;;;;35.03;21.83;;;;;;;3.29;100.00;100539.31;4978428;28;20323;-55
2022/11/24 08:23:20;;;;;;;31.50;20.37;;;;;;;3.50;100.00;100527.69;4980114;28;20731;-55
2022/11/24 08:25:48;;;;;;;27.57;20.57;;;;;;;3.33;100.00;100530.78;4969837;28;20244;-57
2022/11/24 08:28:15;;;;;;;27.13;19.20;;;;;;;3.61;100.00;100525.34;4992367;28;20249;-55
2022/11/24 08:30:42;;;;;;;29.23;20.13;;;;;;;3.71;100.00;100523.00;4992177;28;20661;-55
2022/11/24 08:33:09;;;;;;;31.90;20.10;;;;;;;3.40;100.00;100530.91;4994528;28;20226;-55
2022/11/24 08:35:37;;;;;;;29.50;20.07;;;;;;;3.14;100.00;100536.31;4980957;28;20237;-55
2022/11/24 08:38:04;;;;;;;28.23;18.90;;;;;;;2.99;100.00;100543.72;4981908;28;20613;-54
2022/11/24 08:40:31;;;;;;;29.93;19.87;;;;;;;2.98;100.00;100537.63;4988833;28;20234;-55
2022/11/24 08:42:59;;;;;;;32.17;20.00;;;;;;;3.13;100.00;100539.75;4978264;28;20237;-54
2022/11/24 08:45:27;;;;;;;28.40;19.03;;;;;;;3.98;100.00;100532.28;4978022;28;20249;-56
2022/11/24 08:47:55;;;;;;;31.27;21.23;;;;;;;3.60;100.00;100540.06;4986812;28;20606;-55
2022/11/24 08:50:22;;;;;;;27.30;18.13;;;;;;;3.53;100.00;100536.44;4993333;28;20261;-55
2022/11/24 08:52:49;;;;;;;30.13;18.93;;;;;;;3.49;100.00;100537.22;5001605;28;20898;-54
2022/11/24 08:55:16;;;;;;;26.37;18.50;;;;;;;3.78;100.00;100530.09;4996234;28;20636;-55
2022/11/24 08:57:43;;;;;;;28.87;19.67;;;;;;;3.92;100.00;100532.13;5002670;28;20232;-55
2022/11/24 09:00:20;;;;;;;27.90;19.77;;;;;;;3.76;100.00;100537.00;4995373;28;20711;-55
2022/11/24 09:02:53;;;;;;;27.83;20.30;;;;;;;3.38;100.00;100559.44;5000816;28;20244;-55
2022/11/24 09:05:20;;;;;;;27.87;19.37;;;;;;;3.26;100.00;100554.78;5005851;28;21088;-56
2022/11/24 09:07:47;;;;;;;28.10;20.20;;;;;;;3.16;100.00;100565.78;5002534;28;20239;-54
2022/11/24 09:10:14;;;;;;;28.67;19.33;;;;;;;2.99;100.00;100570.53;5004961;28;20232;-55
2022/11/24 09:12:41;;;;;;;25.67;17.77;;;;;;;2.78;100.00;100570.81;5007911;28;20282;-54
2022/11/24 09:15:08;;;;;;;24.60;18.73;;;;;;;2.59;100.00;100552.97;5000572;28;20232;-55
2022/11/24 09:17:36;;;;;;;23.10;17.87;;;;;;;2.58;100.00;100566.78;5000757;28;20256;-55
2022/11/24 09:20:03;;;;;;;24.57;18.20;;;;;;;2.47;100.00;100565.59;4995360;28;20702;-55
2022/11/24 09:22:30;;;;;;;26.40;18.13;;;;;;;2.48;100.00;100567.34;4998417;28;20245;-55
2022/11/24 09:24:57;;;;;;;22.07;16.27;;;;;;;2.52;100.00;100570.06;4997653;28;21033;-54
2022/11/24 09:27:24;;;;;;;25.97;17.73;;;;;;;2.68;100.00;100558.44;4977737;28;20749;-55
2022/11/24 09:29:51;;;;;;;28.67;19.77;;;;;;;2.98;100.00;100568.75;4981076;28;20707;-55
2022/11/24 09:32:18;;;;;;;27.63;19.40;;;;;;;3.43;100.00;100572.50;4997036;28;20238;-55
2022/11/24 09:34:46;;;;;;;26.27;17.90;;;;;;;3.58;100.00;100570.31;4994813;28;20229;-55
2022/11/24 09:37:13;;;;;;;29.50;19.57;;;;;;;3.74;100.00;100568.94;5001107;28;20232;-55
2022/11/24 09:39:40;;;;;;;28.50;19.67;;;;;;;3.96;100.00;100572.91;5001825;28;20260;-56
2022/11/24 09:42:12;;;;;;;24.97;19.73;;;;;;;3.78;100.00;100591.53;4996569;28;20241;-55
2022/11/24 09:44:49;;;;;;;28.87;17.67;;;;;;;3.87;100.00;100593.50;5001914;28;20232;-55
2022/11/24 09:47:23;;;;;;;23.87;19.23;;;;;;;3.63;100.00;100592.06;4998686;28;20378;-55
2022/11/24 09:49:54;;;;;;;30.43;19.87;;;;;;;3.50;100.00;100595.19;5005022;28;20239;-56
2022/11/24 09:52:23;;;;;;;32.97;20.83;;;;;;;3.19;100.00;100602.16;5000154;28;20287;-54
2022/11/24 09:54:53;;;;;;;28.60;19.60;;;;;;;3.10;100.00;100605.41;5001942;28;20745;-54
2022/11/24 09:57:22;;;;;;;29.20;20.63;;;;;;;3.29;100.00;100596.38;4994821;28;20240;-55
2022/11/24 09:59:48;;;;;;;26.43;18.97;;;;;;;3.29;100.00;100586.00;5000338;28;20328;-54
2022/11/24 10:02:15;;;;;;;29.23;19.87;;;;;;;3.32;100.00;100583.50;4997547;28;20311;-54
2022/11/24 10:04:43;;;;;;;26.07;19.23;;;;;;;3.46;100.00;100588.16;5001252;28;20817;-52
2022/11/24 10:07:19;;;;;;;27.37;20.63;;;;;;;3.42;100.00;100587.22;4993497;28;20245;-53
2022/11/24 10:10:04;;;;;;;29.60;20.83;;;;;;;3.28;100.00;100589.44;4988107;28;20327;-54
2022/11/24 10:12:42;;;;;;;29.40;20.00;;;;;;;3.30;100.00;100592.97;4983511;28;20667;-54
2022/11/24 10:15:31;;;;;;;29.90;20.50;;;;;;;3.37;100.00;100593.09;4996906;28;20326;-55
2022/11/24 10:18:12;;;;;;;25.30;19.77;;;;;;;3.90;100.00;100573.69;4998060;28;20261;-54
2022/11/24 10:20:49;;;;;;;29.67;21.00;;;;;;;3.75;100.00;100589.75;4998087;28;20766;-54
2022/11/24 10:23:32;;;;;;;30.97;20.70;;;;;;;3.96;100.00;100602.38;4995283;28;20715;-53
2022/11/24 10:25:59;;;;;;;27.80;20.97;;;;;;;4.07;100.00;100605.22;4997451;28;20719;-53
2022/11/24 10:28:31;;;;;;;29.87;21.27;;;;;;;4.16;100.00;100605.44;4987158;28;20241;-54
2022/11/24 10:31:00;;;;;;;32.47;21.23;;;;;;;4.18;100.00;100603.75;4999021;28;20229;-55
2022/11/24 10:33:29;;;;;;;31.97;21.70;;;;;;;4.17;100.00;100601.97;4994645;28;20244;-53
2022/11/24 10:35:56;;;;;;;25.10;20.47;;;;;;;4.42;100.00;100606.03;4995107;28;20232;-55
2022/11/24 10:38:31;;;;;;;35.37;22.80;;;;;;;4.46;100.00;100606.97;4997890;28;20939;-54
2022/11/24 10:40:59;;;;;;;28.97;20.03;;;;;;;4.77;100.00;100608.47;5003994;28;20328;-53
2022/11/24 10:43:27;;;;;;;29.57;20.07;;;;;;;4.74;100.00;100611.91;5004062;28;20678;-55
2022/11/24 10:45:54;;;;;;;27.47;21.00;;;;;;;4.81;100.00;100607.72;4994298;28;20255;-55
2022/11/24 10:48:24;;;;;;;30.97;20.73;;;;;;;4.81;100.00;100601.59;4998976;28;20229;-54
2022/11/24 10:50:53;;;;;;;32.97;22.77;;;;;;;4.80;100.00;100605.94;4996844;28;20730;-56
2022/11/24 10:53:22;;;;;;;32.67;22.43;;;;;;;4.94;100.00;100603.59;5001091;28;20253;-53
2022/11/24 10:56:02;;;;;;;29.83;22.00;;;;;;;4.97;100.00;100604.53;4998506;28;20227;-54
2022/11/24 10:58:30;;;;;;;29.77;20.67;;;;;;;5.13;100.00;100610.94;5003663;28;20236;-54
2022/11/24 11:00:58;;;;;;;31.60;20.67;;;;;;;5.01;100.00;100618.50;5000313;28;20236;-53
2022/11/24 11:03:27;;;;;;;29.57;21.03;;;;;;;4.70;100.00;100617.00;5001046;28;20327;-54
2022/11/24 11:05:55;;;;;;;32.33;21.93;;;;;;;4.86;100.00;100610.41;4996206;28;20308;-54
2022/11/24 11:08:25;;;;;;;29.90;21.40;;;;;;;5.00;100.00;100611.53;4997490;28;20237;-53
2022/11/24 11:11:12;;;;;;;31.77;21.83;;;;;;;5.12;100.00;100611.75;4995837;28;20332;-55
2022/11/24 11:13:38;;;;;;;36.87;21.77;;;;;;;5.01;100.00;100611.56;4972418;28;20230;-54
2022/11/24 11:16:23;;;;;;;29.37;20.23;;;;;;;4.97;100.00;100616.69;4999410;28;20244;-56